sensor_id;sensor_type;location;lat;lon;timestamp;P1;durP1;ratioP1;P2;durP2;ratioP2
22284;SDS011;11311;52.192;20.900;2024-03-25T00:01:37;10.55;;;9.00;;
22284;SDS011;11311;52.192;20.900;2024-03-25T00:04:04;12.05;;;8.68;;
22284;SDS011;11311;52.192;20.900;2024-03-25T00:06:31;10.95;;;9.23;;
22284;SDS011;11311;52.192;20.900;2024-03-25T00:08:59;10.80;;;8.43;;
22284;SDS011;11311;52.192;20.900;2024-03-25T00:11:26;11.00;;;8.88;;
22284;SDS011;11311;52.192;20.900;2024-03-25T00:13:54;12.45;;;9.25;;
22284;SDS011;11311;52.192;20.900;2024-03-25T00:16:22;17.03;;;9.23;;
22284;SDS011;11311;52.192;20.900;2024-03-25T00:18:48;10.90;;;9.68;;
22284;SDS011;11311;52.192;20.900;2024-03-25T00:21:15;14.75;;;10.98;;
22284;SDS011;11311;52.192;20.900;2024-03-25T00:23:42;13.68;;;10.23;;
22284;SDS011;11311;52.192;20.900;2024-03-25T00:26:09;15.35;;;11.15;;
22284;SDS011;11311;52.192;20.900;2024-03-25T00:28:35;15.20;;;10.70;;
22284;SDS011;11311;52.192;20.900;2024-03-25T00:31:04;16.55;;;11.85;;
22284;SDS011;11311;52.192;20.900;2024-03-25T00:33:30;16.05;;;12.35;;
22284;SDS011;11311;52.192;20.900;2024-03-25T00:35:58;18.40;;;12.25;;
22284;SDS011;11311;52.192;20.900;2024-03-25T00:38:24;17.48;;;12.15;;
22284;SDS011;11311;52.192;20.900;2024-03-25T00:40:51;15.35;;;11.25;;
22284;SDS011;11311;52.192;20.900;2024-03-25T00:43:17;16.70;;;13.15;;
22284;SDS011;11311;52.192;20.900;2024-03-25T00:45:45;17.05;;;12.07;;
22284;SDS011;11311;52.192;20.900;2024-03-25T00:48:13;18.35;;;12.75;;
22284;SDS011;11311;52.192;20.900;2024-03-25T00:50:40;16.27;;;12.85;;
22284;SDS011;11311;52.192;20.900;2024-03-25T00:53:07;18.13;;;13.50;;
22284;SDS011;11311;52.192;20.900;2024-03-25T00:55:34;18.02;;;13.88;;
22284;SDS011;11311;52.192;20.900;2024-03-25T00:58:01;22.77;;;15.20;;
22284;SDS011;11311;52.192;20.900;2024-03-25T01:00:28;20.48;;;14.02;;
22284;SDS011;11311;52.192;20.900;2024-03-25T01:02:54;21.67;;;15.10;;
22284;SDS011;11311;52.192;20.900;2024-03-25T01:05:23;24.52;;;17.17;;
22284;SDS011;11311;52.192;20.900;2024-03-25T01:07:49;21.55;;;16.00;;
22284;SDS011;11311;52.192;20.900;2024-03-25T01:10:16;22.98;;;15.90;;
22284;SDS011;11311;52.192;20.900;2024-03-25T01:12:44;22.42;;;15.02;;
22284;SDS011;11311;52.192;20.900;2024-03-25T01:15:11;27.27;;;17.00;;
22284;SDS011;11311;52.192;20.900;2024-03-25T01:17:37;25.33;;;18.17;;
22284;SDS011;11311;52.192;20.900;2024-03-25T01:20:05;22.98;;;17.30;;
22284;SDS011;11311;52.192;20.900;2024-03-25T01:22:32;24.30;;;16.15;;
22284;SDS011;11311;52.192;20.900;2024-03-25T01:25:00;25.85;;;18.10;;
22284;SDS011;11311;52.192;20.900;2024-03-25T01:27:26;26.65;;;17.10;;
22284;SDS011;11311;52.192;20.900;2024-03-25T01:29:53;23.85;;;17.13;;
22284;SDS011;11311;52.192;20.900;2024-03-25T01:32:19;23.35;;;17.33;;
22284;SDS011;11311;52.192;20.900;2024-03-25T01:34:46;26.75;;;19.52;;
22284;SDS011;11311;52.192;20.900;2024-03-25T01:37:12;27.48;;;17.35;;
22284;SDS011;11311;52.192;20.900;2024-03-25T01:39:42;27.60;;;20.30;;
22284;SDS011;11311;52.192;20.900;2024-03-25T01:42:08;25.08;;;19.45;;
22284;SDS011;11311;52.192;20.900;2024-03-25T01:44:36;24.17;;;19.13;;
22284;SDS011;11311;52.192;20.900;2024-03-25T01:47:03;23.65;;;18.05;;
22284;SDS011;11311;52.192;20.900;2024-03-25T01:49:30;28.42;;;21.08;;
22284;SDS011;11311;52.192;20.900;2024-03-25T01:51:57;30.40;;;20.95;;
22284;SDS011;11311;52.192;20.900;2024-03-25T01:54:24;32.65;;;21.75;;
22284;SDS011;11311;52.192;20.900;2024-03-25T01:56:52;27.80;;;21.27;;
22284;SDS011;11311;52.192;20.900;2024-03-25T01:59:21;26.35;;;19.30;;
22284;SDS011;11311;52.192;20.900;2024-03-25T02:01:47;26.08;;;19.30;;
22284;SDS011;11311;52.192;20.900;2024-03-25T02:04:14;29.90;;;21.85;;
22284;SDS011;11311;52.192;20.900;2024-03-25T02:06:40;27.48;;;21.33;;
22284;SDS011;11311;52.192;20.900;2024-03-25T02:09:09;28.88;;;21.55;;
22284;SDS011;11311;52.192;20.900;2024-03-25T02:11:35;29.65;;;21.15;;
22284;SDS011;11311;52.192;20.900;2024-03-25T02:14:04;26.00;;;20.38;;
22284;SDS011;11311;52.192;20.900;2024-03-25T02:16:30;27.30;;;21.73;;
22284;SDS011;11311;52.192;20.900;2024-03-25T02:18:57;28.02;;;20.92;;
22284;SDS011;11311;52.192;20.900;2024-03-25T02:21:23;30.50;;;20.15;;
22284;SDS011;11311;52.192;20.900;2024-03-25T02:23:50;30.20;;;20.90;;
22284;SDS011;11311;52.192;20.900;2024-03-25T02:26:20;28.35;;;20.92;;
22284;SDS011;11311;52.192;20.900;2024-03-25T02:31:14;27.27;;;20.67;;
22284;SDS011;11311;52.192;20.900;2024-03-25T02:33:42;29.23;;;21.42;;
22284;SDS011;11311;52.192;20.900;2024-03-25T02:36:08;29.85;;;21.98;;
22284;SDS011;11311;52.192;20.900;2024-03-25T02:38:35;28.52;;;23.05;;
22284;SDS011;11311;52.192;20.900;2024-03-25T02:41:01;31.08;;;21.38;;
22284;SDS011;11311;52.192;20.900;2024-03-25T02:43:30;28.83;;;20.20;;
22284;SDS011;11311;52.192;20.900;2024-03-25T02:45:56;27.83;;;21.17;;
22284;SDS011;11311;52.192;20.900;2024-03-25T02:48:23;27.30;;;19.85;;
22284;SDS011;11311;52.192;20.900;2024-03-25T02:50:49;25.27;;;21.05;;
22284;SDS011;11311;52.192;20.900;2024-03-25T02:53:17;26.77;;;20.67;;
22284;SDS011;11311;52.192;20.900;2024-03-25T02:55:43;32.35;;;20.40;;
22284;SDS011;11311;52.192;20.900;2024-03-25T02:58:10;24.85;;;18.67;;
22284;SDS011;11311;52.192;20.900;2024-03-25T03:00:37;32.15;;;20.77;;
22284;SDS011;11311;52.192;20.900;2024-03-25T03:03:04;31.83;;;20.50;;
22284;SDS011;11311;52.192;20.900;2024-03-25T03:05:31;31.00;;;21.83;;
22284;SDS011;11311;52.192;20.900;2024-03-25T03:07:58;29.88;;;20.35;;
22284;SDS011;11311;52.192;20.900;2024-03-25T03:10:24;31.10;;;21.92;;
22284;SDS011;11311;52.192;20.900;2024-03-25T03:12:51;31.67;;;23.42;;
22284;SDS011;11311;52.192;20.900;2024-03-25T03:15:17;33.50;;;23.60;;
22284;SDS011;11311;52.192;20.900;2024-03-25T03:17:46;32.40;;;23.55;;
22284;SDS011;11311;52.192;20.900;2024-03-25T03:20:12;35.88;;;23.02;;
22284;SDS011;11311;52.192;20.900;2024-03-25T03:22:39;31.88;;;22.95;;
22284;SDS011;11311;52.192;20.900;2024-03-25T03:25:05;29.30;;;21.92;;
22284;SDS011;11311;52.192;20.900;2024-03-25T03:27:32;30.00;;;23.15;;
22284;SDS011;11311;52.192;20.900;2024-03-25T03:29:59;30.98;;;22.15;;
22284;SDS011;11311;52.192;20.900;2024-03-25T03:32:26;30.70;;;23.48;;
22284;SDS011;11311;52.192;20.900;2024-03-25T03:34:53;30.05;;;23.50;;
22284;SDS011;11311;52.192;20.900;2024-03-25T03:37:20;29.58;;;22.75;;
22284;SDS011;11311;52.192;20.900;2024-03-25T03:39:46;30.77;;;22.30;;
22284;SDS011;11311;52.192;20.900;2024-03-25T03:42:18;29.02;;;20.20;;
22284;SDS011;11311;52.192;20.900;2024-03-25T03:44:44;31.45;;;21.65;;
22284;SDS011;11311;52.192;20.900;2024-03-25T03:47:11;36.08;;;22.80;;
22284;SDS011;11311;52.192;20.900;2024-03-25T03:49:37;27.80;;;22.88;;
22284;SDS011;11311;52.192;20.900;2024-03-25T03:52:05;32.90;;;22.80;;
22284;SDS011;11311;52.192;20.900;2024-03-25T03:54:32;32.72;;;24.27;;
22284;SDS011;11311;52.192;20.900;2024-03-25T03:56:59;33.05;;;24.85;;
22284;SDS011;11311;52.192;20.900;2024-03-25T03:59:26;33.55;;;24.45;;
22284;SDS011;11311;52.192;20.900;2024-03-25T04:01:52;29.60;;;22.77;;
22284;SDS011;11311;52.192;20.900;2024-03-25T04:04:19;33.17;;;23.00;;
22284;SDS011;11311;52.192;20.900;2024-03-25T04:06:46;31.88;;;22.63;;
22284;SDS011;11311;52.192;20.900;2024-03-25T04:09:14;33.42;;;23.95;;
22284;SDS011;11311;52.192;20.900;2024-03-25T04:11:41;28.85;;;23.50;;
22284;SDS011;11311;52.192;20.900;2024-03-25T04:14:07;38.38;;;23.70;;
22284;SDS011;11311;52.192;20.900;2024-03-25T04:16:35;33.90;;;23.52;;
22284;SDS011;11311;52.192;20.900;2024-03-25T04:19:01;30.42;;;23.08;;
22284;SDS011;11311;52.192;20.900;2024-03-25T04:21:28;32.17;;;23.33;;
22284;SDS011;11311;52.192;20.900;2024-03-25T04:23:55;34.20;;;25.38;;
22284;SDS011;11311;52.192;20.900;2024-03-25T04:26:24;33.25;;;22.33;;
22284;SDS011;11311;52.192;20.900;2024-03-25T04:28:50;37.92;;;25.15;;
22284;SDS011;11311;52.192;20.900;2024-03-25T04:31:18;32.08;;;21.15;;
22284;SDS011;11311;52.192;20.900;2024-03-25T04:33:44;32.72;;;23.00;;
22284;SDS011;11311;52.192;20.900;2024-03-25T04:36:11;33.20;;;23.95;;
22284;SDS011;11311;52.192;20.900;2024-03-25T04:38:38;33.00;;;21.50;;
22284;SDS011;11311;52.192;20.900;2024-03-25T04:41:04;34.05;;;24.42;;
22284;SDS011;11311;52.192;20.900;2024-03-25T04:43:32;31.80;;;23.05;;
22284;SDS011;11311;52.192;20.900;2024-03-25T04:46:00;28.40;;;21.92;;
22284;SDS011;11311;52.192;20.900;2024-03-25T04:48:26;38.65;;;24.48;;
22284;SDS011;11311;52.192;20.900;2024-03-25T04:50:52;32.72;;;22.35;;
22284;SDS011;11311;52.192;20.900;2024-03-25T04:53:18;31.38;;;23.35;;
22284;SDS011;11311;52.192;20.900;2024-03-25T04:55:44;34.35;;;20.95;;
22284;SDS011;11311;52.192;20.900;2024-03-25T04:58:10;33.97;;;23.02;;
22284;SDS011;11311;52.192;20.900;2024-03-25T05:00:38;31.15;;;22.30;;
22284;SDS011;11311;52.192;20.900;2024-03-25T05:03:05;33.15;;;23.58;;
22284;SDS011;11311;52.192;20.900;2024-03-25T05:05:31;33.45;;;23.60;;
22284;SDS011;11311;52.192;20.900;2024-03-25T05:07:57;37.42;;;23.00;;
22284;SDS011;11311;52.192;20.900;2024-03-25T05:10:23;34.90;;;22.70;;
22284;SDS011;11311;52.192;20.900;2024-03-25T05:12:49;29.77;;;21.42;;
22284;SDS011;11311;52.192;20.900;2024-03-25T05:15:15;33.75;;;21.55;;
22284;SDS011;11311;52.192;20.900;2024-03-25T05:17:43;26.90;;;19.15;;
22284;SDS011;11311;52.192;20.900;2024-03-25T05:20:09;26.15;;;21.63;;
22284;SDS011;11311;52.192;20.900;2024-03-25T05:22:36;37.25;;;23.40;;
22284;SDS011;11311;52.192;20.900;2024-03-25T05:25:02;31.77;;;20.90;;
22284;SDS011;11311;52.192;20.900;2024-03-25T05:27:28;24.35;;;17.58;;
22284;SDS011;11311;52.192;20.900;2024-03-25T05:29:54;28.80;;;20.35;;
22284;SDS011;11311;52.192;20.900;2024-03-25T05:32:21;24.65;;;19.88;;
22284;SDS011;11311;52.192;20.900;2024-03-25T05:34:48;23.23;;;17.60;;
22284;SDS011;11311;52.192;20.900;2024-03-25T05:37:14;24.65;;;18.48;;
22284;SDS011;11311;52.192;20.900;2024-03-25T05:39:41;21.60;;;16.83;;
22284;SDS011;11311;52.192;20.900;2024-03-25T05:42:07;22.80;;;16.42;;
22284;SDS011;11311;52.192;20.900;2024-03-25T05:44:33;30.20;;;16.48;;
22284;SDS011;11311;52.192;20.900;2024-03-25T05:46:59;21.83;;;15.75;;
22284;SDS011;11311;52.192;20.900;2024-03-25T05:49:25;17.63;;;15.68;;
22284;SDS011;11311;52.192;20.900;2024-03-25T05:51:53;20.85;;;14.82;;
22284;SDS011;11311;52.192;20.900;2024-03-25T05:54:19;18.17;;;14.50;;
22284;SDS011;11311;52.192;20.900;2024-03-25T05:56:45;24.30;;;13.60;;
22284;SDS011;11311;52.192;20.900;2024-03-25T05:59:11;19.15;;;13.48;;
22284;SDS011;11311;52.192;20.900;2024-03-25T06:01:37;18.27;;;13.73;;
22284;SDS011;11311;52.192;20.900;2024-03-25T06:04:04;19.42;;;13.85;;
22284;SDS011;11311;52.192;20.900;2024-03-25T06:06:30;19.38;;;13.80;;
22284;SDS011;11311;52.192;20.900;2024-03-25T06:08:57;17.58;;;11.93;;
22284;SDS011;11311;52.192;20.900;2024-03-25T06:11:24;19.20;;;13.77;;
22284;SDS011;11311;52.192;20.900;2024-03-25T06:13:50;17.80;;;13.48;;
22284;SDS011;11311;52.192;20.900;2024-03-25T06:16:17;17.02;;;12.68;;
22284;SDS011;11311;52.192;20.900;2024-03-25T06:18:44;18.08;;;13.02;;
22284;SDS011;11311;52.192;20.900;2024-03-25T06:21:10;18.23;;;12.75;;
22284;SDS011;11311;52.192;20.900;2024-03-25T06:23:36;22.17;;;13.27;;
22284;SDS011;11311;52.192;20.900;2024-03-25T06:26:04;15.73;;;12.50;;
22284;SDS011;11311;52.192;20.900;2024-03-25T06:28:29;20.88;;;13.50;;
22284;SDS011;11311;52.192;20.900;2024-03-25T06:30:56;19.85;;;12.27;;
22284;SDS011;11311;52.192;20.900;2024-03-25T06:33:41;19.00;;;12.75;;
22284;SDS011;11311;52.192;20.900;2024-03-25T06:36:25;19.90;;;11.95;;
22284;SDS011;11311;52.192;20.900;2024-03-25T06:38:52;18.38;;;11.82;;
22284;SDS011;11311;52.192;20.900;2024-03-25T06:41:19;19.42;;;12.65;;
22284;SDS011;11311;52.192;20.900;2024-03-25T06:43:45;17.35;;;13.20;;
22284;SDS011;11311;52.192;20.900;2024-03-25T06:46:12;21.83;;;13.60;;
22284;SDS011;11311;52.192;20.900;2024-03-25T06:48:38;16.98;;;11.25;;
22284;SDS011;11311;52.192;20.900;2024-03-25T06:51:04;18.33;;;12.55;;
22284;SDS011;11311;52.192;20.900;2024-03-25T06:53:31;17.42;;;11.65;;
22284;SDS011;11311;52.192;20.900;2024-03-25T06:55:58;17.40;;;12.85;;
22284;SDS011;11311;52.192;20.900;2024-03-25T06:58:26;20.10;;;13.88;;
22284;SDS011;11311;52.192;20.900;2024-03-25T07:00:52;18.85;;;12.40;;
22284;SDS011;11311;52.192;20.900;2024-03-25T07:03:19;14.95;;;9.98;;
22284;SDS011;11311;52.192;20.900;2024-03-25T07:05:46;15.85;;;10.95;;
22284;SDS011;11311;52.192;20.900;2024-03-25T07:08:12;15.15;;;11.05;;
22284;SDS011;11311;52.192;20.900;2024-03-25T07:10:40;18.73;;;9.65;;
22284;SDS011;11311;52.192;20.900;2024-03-25T07:13:07;13.40;;;9.48;;
22284;SDS011;11311;52.192;20.900;2024-03-25T07:15:37;14.13;;;9.52;;
22284;SDS011;11311;52.192;20.900;2024-03-25T07:18:03;14.73;;;9.23;;
22284;SDS011;11311;52.192;20.900;2024-03-25T07:20:30;10.20;;;7.60;;
22284;SDS011;11311;52.192;20.900;2024-03-25T07:22:56;13.95;;;8.82;;
22284;SDS011;11311;52.192;20.900;2024-03-25T07:25:22;11.82;;;8.63;;
22284;SDS011;11311;52.192;20.900;2024-03-25T07:27:48;12.80;;;9.00;;
22284;SDS011;11311;52.192;20.900;2024-03-25T07:30:14;13.82;;;10.23;;
22284;SDS011;11311;52.192;20.900;2024-03-25T07:32:42;14.40;;;9.50;;
22284;SDS011;11311;52.192;20.900;2024-03-25T07:35:08;11.60;;;9.80;;
22284;SDS011;11311;52.192;20.900;2024-03-25T07:37:34;13.52;;;9.30;;
22284;SDS011;11311;52.192;20.900;2024-03-25T07:40:01;16.55;;;8.90;;
22284;SDS011;11311;52.192;20.900;2024-03-25T07:42:27;12.25;;;8.98;;
22284;SDS011;11311;52.192;20.900;2024-03-25T07:44:54;12.70;;;8.55;;
22284;SDS011;11311;52.192;20.900;2024-03-25T07:47:20;14.82;;;9.05;;
22284;SDS011;11311;52.192;20.900;2024-03-25T07:49:47;13.98;;;9.05;;
22284;SDS011;11311;52.192;20.900;2024-03-25T07:52:13;14.00;;;9.27;;
22284;SDS011;11311;52.192;20.900;2024-03-25T07:54:40;11.90;;;8.80;;
22284;SDS011;11311;52.192;20.900;2024-03-25T07:57:06;11.75;;;8.73;;
22284;SDS011;11311;52.192;20.900;2024-03-25T07:59:33;11.93;;;8.45;;
22284;SDS011;11311;52.192;20.900;2024-03-25T08:01:59;11.43;;;9.38;;
22284;SDS011;11311;52.192;20.900;2024-03-25T08:04:25;12.43;;;8.55;;
22284;SDS011;11311;52.192;20.900;2024-03-25T08:06:52;10.25;;;7.95;;
22284;SDS011;11311;52.192;20.900;2024-03-25T08:09:19;11.60;;;8.60;;
22284;SDS011;11311;52.192;20.900;2024-03-25T08:11:45;16.23;;;9.02;;
22284;SDS011;11311;52.192;20.900;2024-03-25T08:14:11;11.07;;;7.97;;
22284;SDS011;11311;52.192;20.900;2024-03-25T08:16:37;14.77;;;8.13;;
22284;SDS011;11311;52.192;20.900;2024-03-25T08:19:03;10.85;;;7.85;;
22284;SDS011;11311;52.192;20.900;2024-03-25T08:21:30;11.25;;;7.68;;
22284;SDS011;11311;52.192;20.900;2024-03-25T08:23:57;11.05;;;8.85;;
22284;SDS011;11311;52.192;20.900;2024-03-25T08:26:23;11.20;;;7.32;;
22284;SDS011;11311;52.192;20.900;2024-03-25T08:28:50;12.63;;;8.85;;
22284;SDS011;11311;52.192;20.900;2024-03-25T08:31:16;12.18;;;8.90;;
22284;SDS011;11311;52.192;20.900;2024-03-25T08:33:42;13.85;;;8.38;;
22284;SDS011;11311;52.192;20.900;2024-03-25T08:36:09;12.05;;;7.90;;
22284;SDS011;11311;52.192;20.900;2024-03-25T08:38:35;9.88;;;7.43;;
22284;SDS011;11311;52.192;20.900;2024-03-25T08:41:03;13.32;;;8.82;;
22284;SDS011;11311;52.192;20.900;2024-03-25T08:43:29;15.48;;;7.53;;
22284;SDS011;11311;52.192;20.900;2024-03-25T08:45:55;17.63;;;8.05;;
22284;SDS011;11311;52.192;20.900;2024-03-25T08:48:21;8.32;;;7.18;;
22284;SDS011;11311;52.192;20.900;2024-03-25T08:50:47;15.65;;;8.18;;
22284;SDS011;11311;52.192;20.900;2024-03-25T08:53:14;10.85;;;7.00;;
22284;SDS011;11311;52.192;20.900;2024-03-25T08:55:43;11.18;;;8.10;;
22284;SDS011;11311;52.192;20.900;2024-03-25T08:58:11;12.32;;;7.13;;
22284;SDS011;11311;52.192;20.900;2024-03-25T09:00:37;9.10;;;6.15;;
22284;SDS011;11311;52.192;20.900;2024-03-25T09:03:03;8.93;;;6.25;;
22284;SDS011;11311;52.192;20.900;2024-03-25T09:05:30;10.20;;;6.55;;
22284;SDS011;11311;52.192;20.900;2024-03-25T09:07:57;10.45;;;6.55;;
22284;SDS011;11311;52.192;20.900;2024-03-25T09:10:23;10.02;;;6.20;;
22284;SDS011;11311;52.192;20.900;2024-03-25T09:13:07;11.75;;;7.07;;
22284;SDS011;11311;52.192;20.900;2024-03-25T09:15:35;10.57;;;6.05;;
22284;SDS011;11311;52.192;20.900;2024-03-25T09:18:02;8.65;;;6.40;;
22284;SDS011;11311;52.192;20.900;2024-03-25T09:20:28;9.02;;;6.78;;
22284;SDS011;11311;52.192;20.900;2024-03-25T09:22:54;8.05;;;6.35;;
22284;SDS011;11311;52.192;20.900;2024-03-25T09:25:20;9.07;;;6.10;;
22284;SDS011;11311;52.192;20.900;2024-03-25T09:27:46;10.15;;;7.03;;
22284;SDS011;11311;52.192;20.900;2024-03-25T09:30:13;7.28;;;5.82;;
22284;SDS011;11311;52.192;20.900;2024-03-25T09:32:41;7.35;;;5.95;;
22284;SDS011;11311;52.192;20.900;2024-03-25T09:35:07;9.70;;;5.97;;
22284;SDS011;11311;52.192;20.900;2024-03-25T09:37:33;7.40;;;5.32;;
22284;SDS011;11311;52.192;20.900;2024-03-25T09:40:00;5.22;;;4.68;;
22284;SDS011;11311;52.192;20.900;2024-03-25T09:42:27;7.38;;;5.20;;
22284;SDS011;11311;52.192;20.900;2024-03-25T09:44:54;8.43;;;4.57;;
22284;SDS011;11311;52.192;20.900;2024-03-25T09:47:21;6.60;;;5.10;;
22284;SDS011;11311;52.192;20.900;2024-03-25T09:49:50;7.53;;;4.70;;
22284;SDS011;11311;52.192;20.900;2024-03-25T09:52:17;5.50;;;4.32;;
22284;SDS011;11311;52.192;20.900;2024-03-25T09:54:44;5.47;;;4.15;;
22284;SDS011;11311;52.192;20.900;2024-03-25T09:57:10;7.05;;;5.13;;
22284;SDS011;11311;52.192;20.900;2024-03-25T09:59:37;6.35;;;4.55;;
22284;SDS011;11311;52.192;20.900;2024-03-25T10:02:04;6.15;;;4.20;;
22284;SDS011;11311;52.192;20.900;2024-03-25T10:04:31;5.78;;;4.10;;
22284;SDS011;11311;52.192;20.900;2024-03-25T10:06:58;7.13;;;5.03;;
22284;SDS011;11311;52.192;20.900;2024-03-25T10:09:25;5.18;;;4.32;;
22284;SDS011;11311;52.192;20.900;2024-03-25T10:11:51;5.93;;;4.47;;
22284;SDS011;11311;52.192;20.900;2024-03-25T10:14:17;8.80;;;5.00;;
22284;SDS011;11311;52.192;20.900;2024-03-25T10:16:45;4.85;;;4.15;;
22284;SDS011;11311;52.192;20.900;2024-03-25T10:19:11;5.70;;;4.85;;
22284;SDS011;11311;52.192;20.900;2024-03-25T10:21:37;7.57;;;4.75;;
22284;SDS011;11311;52.192;20.900;2024-03-25T10:24:05;6.15;;;4.25;;
22284;SDS011;11311;52.192;20.900;2024-03-25T10:26:32;5.55;;;3.72;;
22284;SDS011;11311;52.192;20.900;2024-03-25T10:28:59;5.13;;;3.33;;
22284;SDS011;11311;52.192;20.900;2024-03-25T10:31:25;4.30;;;3.90;;
22284;SDS011;11311;52.192;20.900;2024-03-25T10:33:51;5.78;;;3.50;;
22284;SDS011;11311;52.192;20.900;2024-03-25T10:36:18;6.75;;;4.05;;
22284;SDS011;11311;52.192;20.900;2024-03-25T10:38:45;4.45;;;4.05;;
22284;SDS011;11311;52.192;20.900;2024-03-25T10:41:13;4.30;;;3.88;;
22284;SDS011;11311;52.192;20.900;2024-03-25T10:43:42;5.88;;;3.90;;
22284;SDS011;11311;52.192;20.900;2024-03-25T10:46:09;6.00;;;4.07;;
22284;SDS011;11311;52.192;20.900;2024-03-25T10:48:37;6.47;;;4.05;;
22284;SDS011;11311;52.192;20.900;2024-03-25T10:51:05;5.40;;;4.03;;
22284;SDS011;11311;52.192;20.900;2024-03-25T10:53:32;4.18;;;3.42;;
22284;SDS011;11311;52.192;20.900;2024-03-25T10:56:00;5.00;;;3.85;;
22284;SDS011;11311;52.192;20.900;2024-03-25T10:58:28;6.63;;;4.00;;
22284;SDS011;11311;52.192;20.900;2024-03-25T11:00:55;4.25;;;3.85;;
22284;SDS011;11311;52.192;20.900;2024-03-25T11:03:22;3.92;;;3.50;;
22284;SDS011;11311;52.192;20.900;2024-03-25T11:16:42;4.80;;;4.28;;
22284;SDS011;11311;52.192;20.900;2024-03-25T11:19:10;5.00;;;4.15;;
22284;SDS011;11311;52.192;20.900;2024-03-25T11:21:38;5.20;;;4.55;;
22284;SDS011;11311;52.192;20.900;2024-03-25T11:24:07;5.35;;;3.85;;
22284;SDS011;11311;52.192;20.900;2024-03-25T11:26:33;5.70;;;3.92;;
22284;SDS011;11311;52.192;20.900;2024-03-25T11:29:00;11.68;;;4.40;;
22284;SDS011;11311;52.192;20.900;2024-03-25T11:31:26;3.78;;;3.47;;
22284;SDS011;11311;52.192;20.900;2024-03-25T11:33:54;4.13;;;3.40;;
22284;SDS011;11311;52.192;20.900;2024-03-25T11:36:20;3.88;;;3.20;;
22284;SDS011;11311;52.192;20.900;2024-03-25T11:38:56;4.88;;;3.40;;
22284;SDS011;11311;52.192;20.900;2024-03-25T11:41:23;4.93;;;3.30;;
22284;SDS011;11311;52.192;20.900;2024-03-25T11:43:49;4.63;;;3.50;;
22284;SDS011;11311;52.192;20.900;2024-03-25T11:46:17;5.03;;;3.17;;
22284;SDS011;11311;52.192;20.900;2024-03-25T11:48:44;4.65;;;3.05;;
22284;SDS011;11311;52.192;20.900;2024-03-25T11:51:12;3.45;;;3.15;;
22284;SDS011;11311;52.192;20.900;2024-03-25T11:53:38;5.28;;;3.13;;
22284;SDS011;11311;52.192;20.900;2024-03-25T11:56:05;2.80;;;2.20;;
22284;SDS011;11311;52.192;20.900;2024-03-25T11:58:31;4.60;;;3.15;;
22284;SDS011;11311;52.192;20.900;2024-03-25T12:00:57;3.50;;;3.08;;
22284;SDS011;11311;52.192;20.900;2024-03-25T12:03:24;3.65;;;2.72;;
22284;SDS011;11311;52.192;20.900;2024-03-25T12:05:52;3.95;;;2.85;;
22284;SDS011;11311;52.192;20.900;2024-03-25T12:08:19;2.67;;;2.47;;
22284;SDS011;11311;52.192;20.900;2024-03-25T12:10:45;4.53;;;3.78;;
22284;SDS011;11311;52.192;20.900;2024-03-25T12:13:30;4.53;;;3.13;;
22284;SDS011;11311;52.192;20.900;2024-03-25T12:15:56;5.95;;;3.25;;
22284;SDS011;11311;52.192;20.900;2024-03-25T12:18:23;6.03;;;3.45;;
22284;SDS011;11311;52.192;20.900;2024-03-25T12:20:49;4.53;;;3.83;;
22284;SDS011;11311;52.192;20.900;2024-03-25T12:23:16;4.78;;;3.83;;
22284;SDS011;11311;52.192;20.900;2024-03-25T12:25:48;6.55;;;3.53;;
22284;SDS011;11311;52.192;20.900;2024-03-25T12:28:15;4.60;;;3.90;;
22284;SDS011;11311;52.192;20.900;2024-03-25T12:30:48;3.80;;;3.38;;
22284;SDS011;11311;52.192;20.900;2024-03-25T12:33:15;4.88;;;4.00;;
22284;SDS011;11311;52.192;20.900;2024-03-25T12:35:42;5.53;;;3.80;;
22284;SDS011;11311;52.192;20.900;2024-03-25T12:38:08;6.97;;;4.18;;
22284;SDS011;11311;52.192;20.900;2024-03-25T12:40:34;8.05;;;5.45;;
22284;SDS011;11311;52.192;20.900;2024-03-25T12:43:02;5.72;;;4.53;;
22284;SDS011;11311;52.192;20.900;2024-03-25T12:45:29;7.72;;;4.50;;
22284;SDS011;11311;52.192;20.900;2024-03-25T12:47:55;5.88;;;4.60;;
22284;SDS011;11311;52.192;20.900;2024-03-25T12:50:21;10.75;;;5.13;;
22284;SDS011;11311;52.192;20.900;2024-03-25T12:52:48;6.90;;;5.03;;
22284;SDS011;11311;52.192;20.900;2024-03-25T12:55:14;8.85;;;5.03;;
22284;SDS011;11311;52.192;20.900;2024-03-25T12:57:40;7.10;;;5.70;;
22284;SDS011;11311;52.192;20.900;2024-03-25T13:00:09;8.68;;;6.20;;
22284;SDS011;11311;52.192;20.900;2024-03-25T13:02:36;8.07;;;5.82;;
22284;SDS011;11311;52.192;20.900;2024-03-25T13:05:02;8.60;;;6.40;;
22284;SDS011;11311;52.192;20.900;2024-03-25T13:07:28;6.20;;;5.38;;
22284;SDS011;11311;52.192;20.900;2024-03-25T13:09:54;6.85;;;5.78;;
22284;SDS011;11311;52.192;20.900;2024-03-25T13:12:20;4.70;;;4.25;;
22284;SDS011;11311;52.192;20.900;2024-03-25T13:14:47;6.07;;;5.05;;
22284;SDS011;11311;52.192;20.900;2024-03-25T13:17:14;4.70;;;4.10;;
22284;SDS011;11311;52.192;20.900;2024-03-25T13:19:40;5.32;;;4.63;;
22284;SDS011;11311;52.192;20.900;2024-03-25T13:22:06;4.50;;;4.05;;
22284;SDS011;11311;52.192;20.900;2024-03-25T13:24:32;6.25;;;4.35;;
22284;SDS011;11311;52.192;20.900;2024-03-25T13:26:59;9.02;;;5.05;;
22284;SDS011;11311;52.192;20.900;2024-03-25T13:29:25;4.70;;;4.28;;
22284;SDS011;11311;52.192;20.900;2024-03-25T13:31:51;5.65;;;5.10;;
22284;SDS011;11311;52.192;20.900;2024-03-25T13:34:19;5.32;;;4.68;;
22284;SDS011;11311;52.192;20.900;2024-03-25T13:36:45;9.13;;;5.55;;
22284;SDS011;11311;52.192;20.900;2024-03-25T13:39:11;9.38;;;4.85;;
22284;SDS011;11311;52.192;20.900;2024-03-25T13:41:37;5.07;;;4.57;;
22284;SDS011;11311;52.192;20.900;2024-03-25T13:44:04;6.78;;;5.35;;
22284;SDS011;11311;52.192;20.900;2024-03-25T13:46:30;8.05;;;5.30;;
22284;SDS011;11311;52.192;20.900;2024-03-25T13:48:56;11.27;;;5.95;;
22284;SDS011;11311;52.192;20.900;2024-03-25T13:51:23;6.45;;;4.97;;
22284;SDS011;11311;52.192;20.900;2024-03-25T13:53:50;6.15;;;4.78;;
22284;SDS011;11311;52.192;20.900;2024-03-25T13:56:16;6.22;;;5.05;;
22284;SDS011;11311;52.192;20.900;2024-03-25T13:58:42;5.57;;;4.80;;
22284;SDS011;11311;52.192;20.900;2024-03-25T14:01:08;5.25;;;4.13;;
22284;SDS011;11311;52.192;20.900;2024-03-25T14:03:34;8.57;;;4.68;;
22284;SDS011;11311;52.192;20.900;2024-03-25T14:06:00;5.93;;;5.28;;
22284;SDS011;11311;52.192;20.900;2024-03-25T14:08:28;6.13;;;5.43;;
22284;SDS011;11311;52.192;20.900;2024-03-25T14:10:58;7.60;;;5.13;;
22284;SDS011;11311;52.192;20.900;2024-03-25T14:13:24;5.85;;;4.90;;
22284;SDS011;11311;52.192;20.900;2024-03-25T14:15:50;5.75;;;4.93;;
22284;SDS011;11311;52.192;20.900;2024-03-25T14:18:17;6.82;;;4.65;;
22284;SDS011;11311;52.192;20.900;2024-03-25T14:20:43;4.97;;;4.50;;
22284;SDS011;11311;52.192;20.900;2024-03-25T14:23:09;7.72;;;4.18;;
22284;SDS011;11311;52.192;20.900;2024-03-25T14:25:37;3.97;;;3.08;;
22284;SDS011;11311;52.192;20.900;2024-03-25T14:28:03;3.78;;;3.38;;
22284;SDS011;11311;52.192;20.900;2024-03-25T14:30:29;7.80;;;3.33;;
22284;SDS011;11311;52.192;20.900;2024-03-25T14:32:56;4.10;;;3.53;;